createdAt,value
2023-01-28T00:00:39.778Z,99825.53
2023-01-28T00:03:12.501Z,99815.72
2023-01-28T00:05:45.887Z,99821.88
2023-01-28T00:08:18.751Z,99823.41
2023-01-28T00:10:51.599Z,99826.22
2023-01-28T00:13:25.728Z,99811.34
2023-01-28T00:15:59.841Z,99821.34
2023-01-28T00:18:34.084Z,99812.28
2023-01-28T00:21:09.677Z,99814.22
2023-01-28T00:23:44.942Z,99812.88
2023-01-28T00:26:17.787Z,99815.34
2023-01-28T00:28:53.158Z,99818.78
2023-01-28T00:31:27.384Z,99815.22
2023-01-28T00:34:00.247Z,99814.34
2023-01-28T00:36:33.857Z,99809.78
2023-01-28T00:39:07.627Z,99811.28
2023-01-28T00:41:40.618Z,99809.69
2023-01-28T00:44:14.902Z,99804.19
2023-01-28T00:46:47.930Z,99803.84
2023-01-28T00:49:20.733Z,99803.59
2023-01-28T00:51:53.501Z,99798.59
2023-01-28T00:54:26.535Z,99810.06
2023-01-28T00:56:59.385Z,99800.56
2023-01-28T00:59:33.506Z,99807.22
2023-01-28T01:02:13.118Z,99815.22
2023-01-28T01:04:54.996Z,99810.50
2023-01-28T01:07:34.811Z,99799.56
2023-01-28T01:10:08.894Z,99809.44
2023-01-28T01:12:42.107Z,99809.53
2023-01-28T01:15:18.636Z,99801.91
2023-01-28T01:17:51.734Z,99811.69
2023-01-28T01:20:27.255Z,99806.63
2023-01-28T01:23:00.287Z,99808.72
2023-01-28T01:25:33.007Z,99809.81
2023-01-28T01:28:05.928Z,99816.91
2023-01-28T01:30:40.089Z,99812.22
2023-01-28T01:33:13.063Z,99808.28
2023-01-28T01:35:45.842Z,99820.09
2023-01-28T01:38:18.712Z,99815.16
2023-01-28T01:40:51.915Z,99823.59
2023-01-28T01:43:24.821Z,99824.91
2023-01-28T01:46:02.428Z,99828.28
2023-01-28T01:48:36.916Z,99827.28
2023-01-28T01:51:13.874Z,99827.50
2023-01-28T01:53:51.263Z,99822.69
2023-01-28T01:56:29.545Z,99832.09
2023-01-28T01:59:03.463Z,99828.81
2023-01-28T02:01:39.909Z,99828.53
2023-01-28T02:04:16.714Z,99825.19
2023-01-28T02:06:52.372Z,99826.59
2023-01-28T02:09:29.453Z,99829.63
2023-01-28T02:12:07.077Z,99820.28
2023-01-28T02:14:43.666Z,99822.59
2023-01-28T02:17:18.079Z,99819.50
2023-01-28T02:19:55.934Z,99825.72
2023-01-28T02:23:10.719Z,99828.75
2023-01-28T02:26:32.425Z,99820.66
2023-01-28T02:29:16.747Z,99824.91
2023-01-28T02:31:55.467Z,99826.25
2023-01-28T02:34:37.383Z,99826.78
2023-01-28T02:37:15.419Z,99822.50
2023-01-28T02:39:50.885Z,99835.19
2023-01-28T02:42:28.177Z,99824.38
2023-01-28T02:45:02.439Z,99833.00
2023-01-28T02:47:52.919Z,99830.16
2023-01-28T02:50:32.908Z,99825.19
2023-01-28T02:53:35.667Z,99831.13
2023-01-28T02:56:18.861Z,99834.53
2023-01-28T02:58:59.555Z,99831.56
2023-01-28T03:01:40.102Z,99829.88
2023-01-28T03:04:21.852Z,99841.50
2023-01-28T03:06:59.855Z,99834.13
2023-01-28T03:09:33.433Z,99850.63
2023-01-28T03:12:27.169Z,99841.97
2023-01-28T03:15:21.377Z,99847.03
2023-01-28T03:18:20.407Z,99845.06
2023-01-28T03:21:20.863Z,99856.59
2023-01-28T03:24:17.804Z,99851.88
2023-01-28T03:27:16.470Z,99850.81
2023-01-28T03:30:12.587Z,99848.72
2023-01-28T03:33:04.087Z,99851.69
2023-01-28T03:35:58.067Z,99849.50
2023-01-28T03:38:34.048Z,99850.03
2023-01-28T03:41:06.899Z,99849.88
2023-01-28T03:43:39.739Z,99855.97
2023-01-28T03:46:12.593Z,99859.69
2023-01-28T03:48:45.779Z,99866.75
2023-01-28T03:51:21.855Z,99873.09
2023-01-28T03:53:54.666Z,99875.03
2023-01-28T03:56:28.530Z,99874.91
2023-01-28T03:59:02.275Z,99881.66
2023-01-28T04:01:35.079Z,99874.44
2023-01-28T04:04:08.025Z,99884.53
2023-01-28T04:06:42.696Z,99884.63
2023-01-28T04:09:30.327Z,99890.31
2023-01-28T04:12:31.613Z,99890.81
2023-01-28T04:15:15.685Z,99887.66
2023-01-28T04:17:50.373Z,99896.06
2023-01-28T04:20:35.477Z,99889.50
2023-01-28T04:23:10.663Z,99892.72
2023-01-28T04:25:43.398Z,99896.41
2023-01-28T04:28:16.215Z,99895.16
2023-01-28T04:30:49.152Z,99894.03
2023-01-28T04:33:40.430Z,99892.44
2023-01-28T04:36:27.503Z,99906.13
2023-01-28T04:39:28.256Z,99902.06
2023-01-28T04:42:27.168Z,99900.91
2023-01-28T04:45:09.433Z,99904.25
2023-01-28T04:48:18.314Z,99900.97
2023-01-28T04:50:59.380Z,99903.66
2023-01-28T04:53:40.797Z,99917.25
2023-01-28T04:56:30.612Z,99916.34
2023-01-28T04:59:03.625Z,99912.88
2023-01-28T05:01:38.029Z,99911.38
2023-01-28T05:04:11.667Z,99912.16
2023-01-28T05:06:45.425Z,99910.66
2023-01-28T05:09:23.762Z,99913.00
2023-01-28T05:11:58.978Z,99919.84
2023-01-28T05:14:31.878Z,99919.34
2023-01-28T05:17:12.878Z,99916.88
2023-01-28T05:19:46.374Z,99916.97
2023-01-28T05:22:25.621Z,99913.22
2023-01-28T05:25:30.409Z,99916.00
2023-01-28T05:28:04.957Z,99921.13
2023-01-28T05:30:39.099Z,99920.63
2023-01-28T05:33:12.369Z,99917.75
2023-01-28T05:35:45.608Z,99917.94
2023-01-28T05:38:18.433Z,99922.06
2023-01-28T05:40:51.241Z,99922.66
2023-01-28T05:43:25.780Z,99918.88
2023-01-28T05:46:16.540Z,99921.09
2023-01-28T05:49:18.811Z,99931.97
2023-01-28T05:52:04.158Z,99925.03
2023-01-28T05:54:37.705Z,99936.88
2023-01-28T05:57:10.572Z,99931.72
2023-01-28T05:59:45.038Z,99933.84
2023-01-28T06:02:18.305Z,99936.06
2023-01-28T06:04:51.409Z,99942.19
2023-01-28T06:07:24.278Z,99943.97
2023-01-28T06:09:57.137Z,99949.31
2023-01-28T06:12:30.411Z,99957.59
2023-01-28T06:15:36.735Z,99952.66
2023-01-28T06:18:19.887Z,99956.34
2023-01-28T06:20:54.386Z,99967.59
2023-01-28T06:23:27.319Z,99964.41
2023-01-28T06:26:00.840Z,99963.19
2023-01-28T06:28:33.700Z,99965.31
2023-01-28T06:31:08.121Z,99965.72
2023-01-28T06:33:40.921Z,99972.69
2023-01-28T06:36:13.752Z,99976.31
2023-01-28T06:38:46.520Z,99976.94
2023-01-28T06:41:19.308Z,99984.00
2023-01-28T06:43:52.014Z,99979.22
2023-01-28T06:46:26.319Z,99993.75
2023-01-28T06:48:59.224Z,99990.06
2023-01-28T06:51:32.031Z,99992.22
2023-01-28T06:54:05.108Z,99981.16
2023-01-28T06:56:37.893Z,99985.00
2023-01-28T06:59:10.633Z,100002.28
2023-01-28T07:01:44.839Z,99999.56
2023-01-28T07:04:17.904Z,100005.91
2023-01-28T07:06:50.596Z,100000.91
2023-01-28T07:09:23.326Z,100001.66
2023-01-28T07:11:56.112Z,100000.34
2023-01-28T07:14:29.005Z,100004.03
2023-01-28T07:17:03.186Z,100002.72
2023-01-28T07:19:35.991Z,100009.53
2023-01-28T07:22:08.820Z,100014.03
2023-01-28T07:24:41.630Z,100023.75
2023-01-28T07:27:14.371Z,100022.88
2023-01-28T07:29:47.341Z,100018.44
2023-01-28T07:32:21.498Z,100014.78
2023-01-28T07:34:54.537Z,100017.81
2023-01-28T07:37:27.302Z,100025.56
2023-01-28T07:40:00.045Z,100023.28
2023-01-28T07:42:33.069Z,100025.06
2023-01-28T07:45:11.063Z,100024.13
2023-01-28T07:47:45.259Z,100022.25
2023-01-28T07:50:18.241Z,100035.06
2023-01-28T07:52:51.694Z,100039.78
2023-01-28T07:55:24.777Z,100026.50
2023-01-28T07:57:58.984Z,100020.13
2023-01-28T08:00:33.665Z,100032.50
2023-01-28T08:03:11.804Z,100033.81
2023-01-28T08:05:47.729Z,100031.28
2023-01-28T08:08:20.861Z,100035.06
2023-01-28T08:10:54.430Z,100038.25
2023-01-28T08:13:27.279Z,100029.72
2023-01-28T08:16:00.067Z,100037.91
2023-01-28T08:18:34.530Z,100025.84
2023-01-28T08:21:07.597Z,100034.59
2023-01-28T08:23:40.398Z,100031.88
2023-01-28T08:26:13.185Z,100029.66
2023-01-28T08:28:46.080Z,100036.16
2023-01-28T08:31:18.981Z,100040.66
2023-01-28T08:33:53.179Z,100036.16
2023-01-28T08:36:25.947Z,100045.50
2023-01-28T08:38:58.713Z,100038.16
2023-01-28T08:41:31.887Z,100047.59
2023-01-28T08:44:04.716Z,100054.38
2023-01-28T08:46:37.464Z,100050.59
2023-01-28T08:49:11.586Z,100057.50
2023-01-28T08:51:44.316Z,100056.00
2023-01-28T08:54:17.087Z,100061.81
2023-01-28T08:56:51.485Z,100064.31
2023-01-28T08:59:24.380Z,100061.41
2023-01-28T09:01:57.454Z,100067.88
2023-01-28T09:04:31.742Z,100062.72
2023-01-28T09:07:04.468Z,100076.72
2023-01-28T09:09:37.198Z,100073.19
2023-01-28T09:12:11.100Z,100077.59
2023-01-28T09:14:44.224Z,100075.31
2023-01-28T09:17:17.144Z,100082.56
2023-01-28T09:19:51.953Z,100076.41
2023-01-28T09:22:24.763Z,100086.63
2023-01-28T09:24:57.538Z,100079.94
2023-01-28T09:27:30.443Z,100078.09
2023-01-28T09:30:03.508Z,100079.72
2023-01-28T09:32:36.281Z,100086.69
2023-01-28T09:35:11.091Z,100092.44
2023-01-28T09:37:43.889Z,100083.59
2023-01-28T09:40:19.805Z,100093.06
2023-01-28T09:43:02.758Z,100093.78
2023-01-28T09:45:40.472Z,100098.25
2023-01-28T09:48:17.096Z,100105.41
2023-01-28T09:50:53.527Z,100098.28
2023-01-28T09:53:31.430Z,100106.47
2023-01-28T09:56:06.443Z,100098.34
2023-01-28T09:58:39.188Z,100104.84
2023-01-28T10:01:34.241Z,100109.91
2023-01-28T10:04:22.977Z,100108.47
2023-01-28T10:07:12.651Z,100107.97
2023-01-28T10:09:51.936Z,100103.41
2023-01-28T10:12:37.704Z,100116.06
2023-01-28T10:15:48.609Z,100114.69
2023-01-28T10:18:30.753Z,100110.56
2023-01-28T10:21:09.596Z,100099.84
2023-01-28T10:23:52.362Z,100118.59
2023-01-28T10:26:27.252Z,100114.81
2023-01-28T10:29:06.288Z,100114.00
2023-01-28T10:31:42.849Z,100111.75
2023-01-28T10:34:16.264Z,100110.28
2023-01-28T10:36:51.308Z,100105.66
2023-01-28T10:39:27.501Z,100114.38
2023-01-28T10:42:00.272Z,100110.16
2023-01-28T10:44:37.028Z,100119.56
2023-01-28T10:47:15.638Z,100106.16
2023-01-28T10:49:54.519Z,100113.31
2023-01-28T10:52:27.320Z,100114.31
2023-01-28T10:55:02.469Z,100112.00
2023-01-28T10:57:36.097Z,100128.41
2023-01-28T11:00:15.140Z,100129.22
2023-01-28T11:02:49.744Z,100126.00
2023-01-28T11:05:25.815Z,100133.13
2023-01-28T11:08:07.599Z,100129.34
2023-01-28T11:10:42.431Z,100129.34
2023-01-28T11:13:19.165Z,100133.03
2023-01-28T11:16:00.393Z,100127.28
2023-01-28T11:18:36.065Z,100129.47
2023-01-28T11:21:17.917Z,100135.53
2023-01-28T11:23:52.860Z,100137.16
2023-01-28T11:26:29.725Z,100139.47
2023-01-28T11:29:02.764Z,100143.75
2023-01-28T11:31:42.425Z,100152.94
2023-01-28T11:34:18.661Z,100141.22
2023-01-28T11:36:52.870Z,100145.25
2023-01-28T11:39:29.585Z,100147.88
2023-01-28T11:42:20.121Z,100146.66
2023-01-28T11:44:52.969Z,100152.50
2023-01-28T11:47:41.836Z,100152.16
2023-01-28T11:50:28.054Z,100147.09
2023-01-28T11:53:16.787Z,100140.28
2023-01-28T11:56:10.496Z,100139.06
2023-01-28T11:58:52.406Z,100141.16
2023-01-28T12:01:33.643Z,100134.94
2023-01-28T12:04:19.799Z,100137.25
2023-01-28T12:07:25.032Z,100129.75
2023-01-28T12:10:01.979Z,100126.41
2023-01-28T12:12:55.982Z,100118.41
2023-01-28T12:16:04.819Z,100122.03
2023-01-28T12:18:52.548Z,100116.75
2023-01-28T12:21:36.798Z,100120.19
2023-01-28T12:24:22.670Z,100107.00
2023-01-28T12:27:07.688Z,100117.75
2023-01-28T12:29:47.593Z,100108.13
2023-01-28T12:32:39.235Z,100108.81
2023-01-28T12:35:36.440Z,100104.22
2023-01-28T12:38:15.942Z,100106.50
2023-01-28T12:40:58.741Z,100101.78
2023-01-28T12:43:45.501Z,100098.91
2023-01-28T12:46:27.889Z,100111.00
2023-01-28T12:49:09.942Z,100098.59
2023-01-28T12:51:53.894Z,100095.88
2023-01-28T12:54:34.137Z,100100.94
2023-01-28T12:57:09.477Z,100098.97
2023-01-28T12:59:47.140Z,100099.81
2023-01-28T13:02:27.453Z,100094.38
2023-01-28T13:05:05.210Z,100098.94
2023-01-28T13:07:42.287Z,100107.59
2023-01-28T13:10:24.962Z,100099.38
2023-01-28T13:12:59.098Z,100105.13
2023-01-28T13:15:32.699Z,100109.13
2023-01-28T13:18:07.034Z,100108.78
2023-01-28T13:20:50.277Z,100106.59
2023-01-28T13:23:26.051Z,100113.56
2023-01-28T13:26:10.859Z,100107.16
2023-01-28T13:28:43.690Z,100111.81
2023-01-28T13:31:18.434Z,100115.94
2023-01-28T13:34:03.034Z,100117.88
2023-01-28T13:36:44.841Z,100120.44
2023-01-28T13:39:21.116Z,100120.31
2023-01-28T13:41:55.449Z,100120.88
2023-01-28T13:44:30.677Z,100126.22
2023-01-28T13:47:16.283Z,100130.47
2023-01-28T13:49:51.147Z,100123.16
2023-01-28T13:52:29.733Z,100129.38
2023-01-28T13:55:06.485Z,100139.34
2023-01-28T13:58:26.754Z,100144.25
2023-01-28T14:01:21.630Z,100136.81
2023-01-28T14:04:37.123Z,100144.97
2023-01-28T14:07:48.876Z,100150.34
2023-01-28T14:10:43.948Z,100148.53
2023-01-28T14:13:38.559Z,100162.88
2023-01-28T14:16:29.722Z,100162.97
2023-01-28T14:19:03.881Z,100170.19
2023-01-28T14:21:37.116Z,100176.16
2023-01-28T14:24:17.185Z,100186.63
2023-01-28T14:26:58.505Z,100181.34
2023-01-28T14:29:45.354Z,100179.03
2023-01-28T14:32:20.537Z,100183.38
2023-01-28T14:34:54.934Z,100186.81
2023-01-28T14:37:32.555Z,100193.13
2023-01-28T14:40:08.981Z,100183.59
2023-01-28T14:42:46.002Z,100194.63
2023-01-28T14:45:34.747Z,100199.31
2023-01-28T14:48:26.361Z,100193.50
2023-01-28T14:51:10.601Z,100194.50
2023-01-28T14:54:05.996Z,100201.72
2023-01-28T14:56:51.133Z,100195.19
2023-01-28T14:59:29.267Z,100204.69
2023-01-28T15:02:04.459Z,100209.75
2023-01-28T15:04:37.945Z,100206.41
2023-01-28T15:07:18.551Z,100201.00
2023-01-28T15:10:02.040Z,100198.25
2023-01-28T15:12:38.629Z,100210.28
2023-01-28T15:15:18.916Z,100215.31
2023-01-28T15:17:51.909Z,100211.53
2023-01-28T15:20:28.537Z,100211.09
2023-01-28T15:23:03.129Z,100210.25
2023-01-28T15:25:36.097Z,100221.97
2023-01-28T15:28:23.316Z,100208.19
2023-01-28T15:30:59.498Z,100218.38
2023-01-28T15:33:32.841Z,100227.31
2023-01-28T15:36:06.956Z,100226.97
2023-01-28T15:38:39.774Z,100228.44
2023-01-28T15:41:13.965Z,100220.22
2023-01-28T15:43:49.993Z,100217.91
2023-01-28T15:46:24.205Z,100218.94
2023-01-28T15:49:00.628Z,100230.91
2023-01-28T15:51:34.874Z,100227.63
2023-01-28T15:54:09.788Z,100218.66
2023-01-28T15:56:42.587Z,100215.34
2023-01-28T15:59:20.869Z,100218.53
2023-01-28T16:02:17.856Z,100227.00
2023-01-28T16:04:58.932Z,100224.97
2023-01-28T16:07:35.955Z,100220.28
2023-01-28T16:10:22.658Z,100220.63
2023-01-28T16:13:04.817Z,100221.16
2023-01-28T16:15:39.301Z,100226.78
2023-01-28T16:18:29.608Z,100213.91
2023-01-28T16:21:02.571Z,100217.56
2023-01-28T16:23:37.668Z,100218.50
2023-01-28T16:26:22.706Z,100213.53
2023-01-28T16:28:55.472Z,100212.09
2023-01-28T16:31:28.353Z,100217.38
2023-01-28T16:34:02.451Z,100220.66
2023-01-28T16:36:35.348Z,100225.69
2023-01-28T16:39:08.156Z,100218.16
2023-01-28T16:41:43.381Z,100217.94
2023-01-28T16:44:17.892Z,100223.72
2023-01-28T16:46:50.679Z,100226.06
2023-01-28T16:49:24.848Z,100222.63
2023-01-28T16:51:57.857Z,100230.56
2023-01-28T16:54:31.007Z,100229.16
2023-01-28T16:57:03.913Z,100233.91
2023-01-28T16:59:36.609Z,100236.72
2023-01-28T17:02:12.467Z,100246.19
2023-01-28T17:04:46.524Z,100251.78
2023-01-28T17:07:19.301Z,100243.81
2023-01-28T17:09:52.142Z,100246.97
2023-01-28T17:12:26.163Z,100244.78
2023-01-28T17:14:58.979Z,100245.69
2023-01-28T17:17:31.817Z,100239.31
2023-01-28T17:20:07.325Z,100249.44
2023-01-28T17:22:40.136Z,100252.41
2023-01-28T17:25:13.034Z,100251.94
2023-01-28T17:27:45.801Z,100244.56
2023-01-28T17:30:20.648Z,100239.25
2023-01-28T17:32:53.370Z,100249.44
2023-01-28T17:35:27.612Z,100260.66
2023-01-28T17:38:00.417Z,100260.59
2023-01-28T17:40:33.389Z,100258.78
2023-01-28T17:43:06.153Z,100273.06
2023-01-28T17:45:39.031Z,100264.81
2023-01-28T17:48:11.920Z,100261.53
2023-01-28T17:50:45.982Z,100267.94
2023-01-28T17:53:18.783Z,100277.81
2023-01-28T17:55:51.511Z,100285.34
2023-01-28T17:58:24.205Z,100288.09
2023-01-28T18:00:57.021Z,100292.97
2023-01-28T18:03:29.943Z,100291.28
2023-01-28T18:06:04.530Z,100293.44
2023-01-28T18:08:37.373Z,100293.28
2023-01-28T18:11:11.299Z,100299.94
2023-01-28T18:13:44.515Z,100293.19
2023-01-28T18:16:19.473Z,100299.41
2023-01-28T18:18:52.200Z,100289.75
2023-01-28T18:21:51.727Z,100295.53
2023-01-28T18:24:28.709Z,100308.91
2023-01-28T18:27:03.287Z,100307.16
2023-01-28T18:29:36.108Z,100308.06
2023-01-28T18:32:08.987Z,100314.28
2023-01-28T18:34:41.755Z,100309.88
2023-01-28T18:37:15.844Z,100315.75
2023-01-28T18:39:48.624Z,100318.13
2023-01-28T18:42:21.359Z,100308.91
2023-01-28T18:44:54.173Z,100306.03
2023-01-28T18:47:26.984Z,100310.81
2023-01-28T18:49:59.712Z,100307.53
2023-01-28T18:52:33.838Z,100305.91
2023-01-28T18:55:07.491Z,100303.56
2023-01-28T18:57:40.230Z,100313.91
2023-01-28T19:00:13.888Z,100304.81
2023-01-28T19:02:46.719Z,100305.75
2023-01-28T19:05:19.482Z,100308.50
2023-01-28T19:07:53.531Z,100310.66
2023-01-28T19:10:26.442Z,100308.50
2023-01-28T19:12:59.299Z,100311.59
2023-01-28T19:15:32.086Z,100303.34
2023-01-28T19:18:04.967Z,100309.69
2023-01-28T19:20:37.727Z,100312.91
2023-01-28T19:23:13.173Z,100308.22
2023-01-28T19:25:46.039Z,100301.06
2023-01-28T19:28:18.735Z,100323.50
2023-01-28T19:30:51.586Z,100339.63
2023-01-28T19:33:24.431Z,100336.81
2023-01-28T19:35:57.789Z,100345.06
2023-01-28T19:38:31.889Z,100352.03
2023-01-28T19:41:05.799Z,100358.16
2023-01-28T19:43:38.542Z,100347.16
2023-01-28T19:46:15.763Z,100359.19
2023-01-28T19:48:48.527Z,100372.56
2023-01-28T19:51:21.810Z,100374.88
2023-01-28T19:53:56.506Z,100377.41
2023-01-28T19:56:29.945Z,100385.16
2023-01-28T19:59:02.964Z,100397.25
2023-01-28T20:01:36.044Z,100400.97
2023-01-28T20:04:08.864Z,100398.78
2023-01-28T20:06:41.669Z,100400.84
2023-01-28T20:09:17.921Z,100410.25
2023-01-28T20:11:50.726Z,100393.84
2023-01-28T20:14:23.481Z,100386.94
2023-01-28T20:16:56.236Z,100385.44
2023-01-28T20:19:28.967Z,100399.47
2023-01-28T20:22:01.727Z,100398.72
2023-01-28T20:24:36.012Z,100395.53
2023-01-28T20:27:08.891Z,100403.09
2023-01-28T20:29:41.769Z,100407.06
2023-01-28T20:32:18.448Z,100418.56
2023-01-28T20:34:53.352Z,100410.38
2023-01-28T20:37:26.130Z,100410.72
2023-01-28T20:40:00.236Z,100407.81
2023-01-28T20:42:32.967Z,100403.97
2023-01-28T20:45:06.527Z,100412.94
2023-01-28T20:47:39.355Z,100395.97
2023-01-28T20:50:12.340Z,100395.22
2023-01-28T20:52:45.079Z,100396.63
2023-01-28T20:55:19.258Z,100389.81
2023-01-28T20:57:53.007Z,100397.72
2023-01-28T21:00:25.896Z,100396.63
2023-01-28T21:02:59.440Z,100389.97
2023-01-28T21:05:32.259Z,100398.97
2023-01-28T21:08:05.021Z,100392.78
2023-01-28T21:10:40.636Z,100392.75
2023-01-28T21:13:15.247Z,100403.84
2023-01-28T21:15:55.685Z,100405.41
2023-01-28T21:18:28.351Z,100397.34
2023-01-28T21:21:04.410Z,100395.91
2023-01-28T21:23:37.163Z,100402.09
2023-01-28T21:26:11.930Z,100397.56
2023-01-28T21:28:45.052Z,100396.78
2023-01-28T21:31:19.416Z,100396.13
2023-01-28T21:33:53.083Z,100403.03
2023-01-28T21:36:31.745Z,100403.22
2023-01-28T21:39:05.719Z,100403.66
2023-01-28T21:41:40.127Z,100412.16
2023-01-28T21:44:13.086Z,100418.41
2023-01-28T21:46:47.234Z,100419.22
2023-01-28T21:49:20.132Z,100420.13
2023-01-28T21:51:52.945Z,100421.06
2023-01-28T21:54:26.032Z,100420.03
2023-01-28T21:57:00.182Z,100418.66
2023-01-28T21:59:32.583Z,100411.41
2023-01-28T22:02:10.469Z,100416.84
2023-01-28T22:04:46.154Z,100420.50
2023-01-28T22:07:20.199Z,100421.88
2023-01-28T22:09:53.315Z,100422.16
2023-01-28T22:12:28.227Z,100423.78
2023-01-28T22:15:01.131Z,100419.47
2023-01-28T22:17:34.010Z,100429.47
2023-01-28T22:20:08.539Z,100408.91
2023-01-28T22:22:41.696Z,100406.50
2023-01-28T22:25:14.661Z,100397.03
2023-01-28T22:27:49.151Z,100402.00
2023-01-28T22:30:22.278Z,100406.25
2023-01-28T22:32:55.048Z,100402.75
2023-01-28T22:35:27.936Z,100400.13
2023-01-28T22:38:00.715Z,100405.03
2023-01-28T22:40:34.799Z,100401.94
2023-01-28T22:43:09.197Z,100394.31
2023-01-28T22:45:42.175Z,100396.44
2023-01-28T22:48:14.922Z,100396.81
2023-01-28T22:50:47.620Z,100385.06
2023-01-28T22:53:20.761Z,100377.56
2023-01-28T22:55:55.840Z,100368.06
2023-01-28T22:58:31.677Z,100363.03
2023-01-28T23:01:06.010Z,100368.50
2023-01-28T23:03:39.113Z,100371.63
2023-01-28T23:06:11.844Z,100380.28
2023-01-28T23:08:45.166Z,100384.75
2023-01-28T23:11:25.150Z,100378.56
2023-01-28T23:14:21.152Z,100372.88
2023-01-28T23:17:11.714Z,100374.16
2023-01-28T23:20:02.385Z,100374.09
2023-01-28T23:22:52.825Z,100378.72
2023-01-28T23:25:25.470Z,100386.97
2023-01-28T23:27:58.276Z,100376.16
2023-01-28T23:30:32.641Z,100375.56
2023-01-28T23:33:06.652Z,100379.00
2023-01-28T23:35:39.640Z,100385.66
2023-01-28T23:38:12.417Z,100375.72
2023-01-28T23:40:45.389Z,100374.06
2023-01-28T23:43:18.471Z,100367.97
2023-01-28T23:45:52.512Z,100366.78
2023-01-28T23:48:25.714Z,100377.13
2023-01-28T23:50:58.493Z,100370.31
2023-01-28T23:53:31.215Z,100370.69
2023-01-28T23:56:06.725Z,100381.19
2023-01-28T23:58:43.744Z,100384.59
